Time;durP1;ratioP1;P1;durP2;ratioP2;P2;SDS_P1;SDS_P2;PMS_P1;PMS_P2;Temp;Humidity;BMP_temperature;BMP_pressure;BME280_temperature;BME280_humidity;BME280_pressure;Samples;Min_cycle;Max_cycle;Signal;HPM_P1;HPM_P2
2022/08/31 00:04:55;;;;;;;1999.90;999.90;;;;;;;18.42;100.00;92300.44;4937097;29;20189;-63
2022/08/31 00:07:21;;;;;;;1999.90;999.90;;;;;;;18.39;100.00;92290.44;4935626;29;20189;-64
2022/08/31 00:09:46;;;;;;;1999.90;999.90;;;;;;;18.40;100.00;92286.41;4919774;29;20185;-64
2022/08/31 00:12:11;;;;;;;1999.90;999.90;;;;;;;18.39;100.00;92287.69;4919709;29;20228;-65
2022/08/31 00:14:37;;;;;;;1999.90;999.90;;;;;;;18.34;100.00;92282.97;4920189;29;20198;-64
2022/08/31 00:17:03;;;;;;;1999.90;999.90;;;;;;;18.35;100.00;92273.41;4919651;29;20185;-64
2022/08/31 00:19:28;;;;;;;1999.90;999.90;;;;;;;18.32;100.00;92285.53;4935930;29;20201;-64
2022/08/31 00:21:54;;;;;;;1999.90;999.90;;;;;;;18.29;100.00;92278.28;4919602;29;20190;-64
2022/08/31 00:24:19;;;;;;;1999.90;999.90;;;;;;;18.29;100.00;92281.78;4920036;29;20199;-64
2022/08/31 00:26:45;;;;;;;1999.90;999.90;;;;;;;18.25;100.00;92273.06;4919509;29;20190;-63
2022/08/31 00:29:12;;;;;;;1999.90;999.90;;;;;;;18.33;100.00;92270.44;4919500;29;20217;-64
2022/08/31 00:31:38;;;;;;;1999.90;999.90;;;;;;;18.37;100.00;92281.94;4919921;29;20186;-64
2022/08/31 00:34:04;;;;;;;1999.90;999.90;;;;;;;18.40;100.00;92275.34;4920194;29;20204;-63
2022/08/31 00:36:29;;;;;;;1999.90;999.90;;;;;;;18.45;100.00;92275.25;4919368;29;20213;-63
2022/08/31 00:38:55;;;;;;;1999.90;999.90;;;;;;;18.48;100.00;92278.97;4919606;29;20236;-63
2022/08/31 00:41:24;;;;;;;1999.90;999.90;;;;;;;18.50;100.00;92273.69;4919196;29;20217;-64
2022/08/31 00:44:00;;;;;;;1999.90;999.90;;;;;;;18.48;100.00;92276.22;4919238;29;20216;-64
2022/08/31 00:46:28;;;;;;;1999.90;999.90;;;;;;;18.45;100.00;92278.03;4919415;29;20197;-65
2022/08/31 00:49:03;;;;;;;1999.90;999.90;;;;;;;18.46;100.00;92284.28;4919167;29;20226;-64
2022/08/31 00:51:32;;;;;;;1999.90;999.90;;;;;;;18.48;100.00;92281.75;4935042;29;20188;-65
2022/08/31 00:53:59;;;;;;;1999.90;999.90;;;;;;;18.47;100.00;92272.69;4934904;29;20198;-65
2022/08/31 00:56:25;;;;;;;1999.90;999.90;;;;;;;18.49;100.00;92274.94;4919142;29;20186;-65
2022/08/31 00:58:51;;;;;;;1999.90;999.90;;;;;;;18.47;100.00;92269.19;4919592;29;20202;-64
2022/08/31 01:01:18;;;;;;;1999.90;999.90;;;;;;;18.47;100.00;92263.69;4919283;29;20194;-64
2022/08/31 01:03:47;;;;;;;1999.90;999.90;;;;;;;18.41;100.00;92247.19;4935852;29;20265;-65
2022/08/31 01:06:17;;;;;;;1999.90;999.90;;;;;;;18.45;100.00;92244.09;4919084;29;20197;-64
2022/08/31 01:08:44;;;;;;;1999.90;999.90;;;;;;;18.42;100.00;92240.38;4919041;29;20214;-65
2022/08/31 01:11:11;;;;;;;1999.90;999.90;;;;;;;18.35;100.00;92240.25;4922140;29;20198;-65
2022/08/31 01:13:36;;;;;;;1999.90;999.90;;;;;;;18.27;100.00;92233.84;4922496;29;20197;-63
2022/08/31 01:16:11;;;;;;;1999.90;999.90;;;;;;;18.31;100.00;92223.22;4922004;29;20190;-62
2022/08/31 01:18:37;;;;;;;1999.90;999.90;;;;;;;18.25;100.00;92220.56;4922338;29;20206;-63
2022/08/31 01:21:53;;;;;;;1999.90;999.90;;;;;;;18.16;100.00;92211.94;4937798;29;20217;-63
2022/08/31 01:24:20;;;;;;;1999.90;999.90;;;;;;;18.12;100.00;92217.78;4933385;29;20205;-63
2022/08/31 01:26:47;;;;;;;1999.90;999.90;;;;;;;18.20;100.00;92223.41;4922027;29;20205;-62
2022/08/31 01:29:13;;;;;;;1999.90;999.90;;;;;;;18.17;100.00;92216.94;4921970;29;20209;-63
2022/08/31 01:31:44;;;;;;;1999.90;999.90;;;;;;;18.11;100.00;92221.09;4921634;29;20190;-62
2022/08/31 01:34:10;;;;;;;1999.90;999.90;;;;;;;18.17;100.00;92213.44;4921797;29;20257;-62
2022/08/31 01:36:38;;;;;;;1999.90;999.90;;;;;;;18.12;100.00;92217.03;4937740;29;20190;-62
2022/08/31 01:39:06;;;;;;;1999.90;999.90;;;;;;;18.15;100.00;92205.69;4921961;29;20194;-62
2022/08/31 01:41:32;;;;;;;1999.90;999.90;;;;;;;18.09;100.00;92207.03;4921843;29;20198;-62
2022/08/31 01:43:57;;;;;;;1999.90;999.90;;;;;;;18.06;100.00;92208.13;4922211;29;20258;-63
2022/08/31 01:46:23;;;;;;;1999.90;999.90;;;;;;;17.92;100.00;92209.38;4922170;29;20265;-63
2022/08/31 01:48:48;;;;;;;1999.90;999.90;;;;;;;17.95;100.00;92191.75;4921917;29;20277;-62
2022/08/31 01:51:17;;;;;;;1999.90;999.90;;;;;;;17.89;100.00;92194.56;4921605;29;20193;-62
2022/08/31 01:53:44;;;;;;;1999.90;999.90;;;;;;;17.92;100.00;92173.47;4921504;29;20190;-62
2022/08/31 01:56:17;;;;;;;1999.90;999.90;;;;;;;17.90;100.00;92173.25;4921619;29;20193;-63
2022/08/31 01:58:42;;;;;;;1999.90;999.90;;;;;;;17.82;100.00;92172.38;4937025;29;20272;-63
2022/08/31 02:01:08;;;;;;;1999.90;999.90;;;;;;;17.80;100.00;92159.09;4921728;29;20214;-63
2022/08/31 02:03:34;;;;;;;1999.90;999.90;;;;;;;17.76;100.00;92164.19;4921478;29;20213;-64
2022/08/31 02:06:09;;;;;;;1999.90;999.90;;;;;;;17.76;100.00;92146.88;4921408;29;20206;-64
2022/08/31 02:08:35;;;;;;;1999.90;999.90;;;;;;;17.74;100.00;92149.44;4921602;29;20229;-65
2022/08/31 02:11:01;;;;;;;1999.90;999.90;;;;;;;17.68;100.00;92132.22;4921326;29;20190;-65
2022/08/31 02:13:26;;;;;;;1999.90;999.90;;;;;;;17.64;100.00;92129.03;4937450;29;20226;-64
2022/08/31 02:15:52;;;;;;;1999.90;999.90;;;;;;;17.60;100.00;92129.34;4920951;29;20229;-64
2022/08/31 02:18:17;;;;;;;1999.90;999.90;;;;;;;17.56;100.00;92122.66;4936834;29;20190;-64
2022/08/31 02:20:43;;;;;;;1999.90;999.90;;;;;;;17.53;100.00;92101.63;4920675;29;20217;-63
2022/08/31 02:23:08;;;;;;;1999.90;999.90;;;;;;;17.50;100.00;92103.41;4921013;29;20198;-64
2022/08/31 02:25:33;;;;;;;1999.90;999.90;;;;;;;17.47;100.00;92076.13;4921500;29;20225;-63
2022/08/31 02:27:59;;;;;;;1999.90;999.90;;;;;;;17.47;100.00;92070.59;4921422;29;20213;-64
2022/08/31 02:30:24;;;;;;;1999.90;999.90;;;;;;;17.42;100.00;92065.94;4921363;29;20252;-64
2022/08/31 02:32:50;;;;;;;1999.90;999.90;;;;;;;17.37;100.00;92056.44;4921712;29;20226;-63
2022/08/31 02:35:16;;;;;;;1999.90;999.90;;;;;;;17.48;100.00;92050.03;4921289;29;20229;-63
2022/08/31 02:37:41;;;;;;;1999.90;999.90;;;;;;;17.47;100.00;92048.53;4921008;29;20277;-63
2022/08/31 02:40:08;;;;;;;1999.90;999.90;;;;;;;17.47;100.00;92054.06;4921265;29;20232;-63
2022/08/31 02:42:34;;;;;;;1999.90;999.90;;;;;;;17.48;100.00;92033.50;4936841;29;20190;-64
2022/08/31 02:45:00;;;;;;;1999.90;999.90;;;;;;;17.48;100.00;92044.53;4920801;29;20194;-64
2022/08/31 02:47:26;;;;;;;1999.90;999.90;;;;;;;17.38;100.00;92035.13;4920372;29;20204;-63
2022/08/31 02:49:51;;;;;;;1999.90;999.90;;;;;;;17.43;100.00;92026.03;4921205;29;20228;-63
2022/08/31 02:52:17;;;;;;;1999.90;999.90;;;;;;;17.46;100.00;92031.25;4920867;29;20256;-64
2022/08/31 02:54:42;;;;;;;1999.90;999.90;;;;;;;17.49;100.00;92018.41;4920662;29;20262;-64
2022/08/31 02:57:08;;;;;;;1999.90;999.90;;;;;;;17.49;100.00;92026.69;4920734;29;20182;-64
2022/08/31 02:59:33;;;;;;;1999.90;999.90;;;;;;;17.52;100.00;92028.41;4920501;29;20212;-63
2022/08/31 03:01:59;;;;;;;1999.90;999.90;;;;;;;17.50;100.00;92036.44;4920715;29;20269;-64
2022/08/31 03:04:24;;;;;;;1999.90;999.90;;;;;;;17.51;100.00;92026.88;4936247;29;20190;-62
2022/08/31 03:06:49;;;;;;;1999.90;999.90;;;;;;;17.56;100.00;92042.63;4920401;29;20221;-63
2022/08/31 03:09:15;;;;;;;1999.90;999.90;;;;;;;17.58;100.00;92053.84;4920184;29;20240;-62
2022/08/31 03:11:41;;;;;;;1999.90;999.90;;;;;;;17.61;100.00;92061.09;4920885;29;20190;-63
2022/08/31 03:14:06;;;;;;;1999.90;999.90;;;;;;;17.62;100.00;92066.06;4920572;29;20202;-63
2022/08/31 03:16:32;;;;;;;1999.90;999.90;;;;;;;17.63;100.00;92075.09;4936190;29;20201;-63
2022/08/31 03:18:57;;;;;;;1999.90;999.90;;;;;;;17.68;100.00;92071.50;4920800;29;20190;-62
2022/08/31 03:21:23;;;;;;;1999.90;999.90;;;;;;;17.69;100.00;92075.72;4920874;29;20252;-63
2022/08/31 03:23:48;;;;;;;1999.90;999.90;;;;;;;17.68;100.00;92096.34;4920539;29;20213;-63
2022/08/31 03:26:13;;;;;;;1999.90;999.90;;;;;;;17.71;100.00;92109.09;4920469;29;20199;-63
2022/08/31 03:28:39;;;;;;;1999.90;999.90;;;;;;;17.72;100.00;92121.59;4919860;29;20297;-63
2022/08/31 03:31:08;;;;;;;1999.90;999.90;;;;;;;17.78;100.00;92122.97;4920171;29;20196;-63
2022/08/31 03:33:34;;;;;;;1999.90;999.90;;;;;;;17.76;100.00;92131.06;4919570;29;20296;-63
2022/08/31 03:36:01;;;;;;;1999.90;999.90;;;;;;;17.73;100.00;92134.13;4920477;29;20197;-64
2022/08/31 03:38:27;;;;;;;1999.90;999.90;;;;;;;17.74;100.00;92135.63;4920290;29;20200;-63
2022/08/31 03:40:53;;;;;;;1999.90;999.90;;;;;;;17.69;100.00;92136.47;4920057;29;20257;-63
2022/08/31 03:43:20;;;;;;;1999.90;999.90;;;;;;;17.63;100.00;92138.59;4920231;29;20190;-63
2022/08/31 03:45:46;;;;;;;1999.90;999.90;;;;;;;17.65;100.00;92130.50;4936315;29;20285;-63
2022/08/31 03:48:11;;;;;;;1999.90;999.90;;;;;;;17.52;100.00;92127.72;4919521;29;20309;-63
2022/08/31 03:50:37;;;;;;;1999.90;999.90;;;;;;;17.54;100.00;92119.66;4920151;29;20208;-64
2022/08/31 03:53:03;;;;;;;1999.90;999.90;;;;;;;17.61;100.00;92113.53;4919971;29;20213;-63
2022/08/31 03:55:30;;;;;;;1999.90;999.90;;;;;;;17.62;100.00;92117.75;4920243;29;20197;-64
2022/08/31 03:57:55;;;;;;;1999.90;999.90;;;;;;;17.68;100.00;92123.94;4935688;29;20186;-64
2022/08/31 04:00:22;;;;;;;1999.90;999.90;;;;;;;17.71;100.00;92128.41;4936095;29;20218;-64
2022/08/31 04:02:47;;;;;;;1999.90;999.90;;;;;;;17.64;100.00;92140.06;4920052;29;20258;-63
2022/08/31 04:05:13;;;;;;;1999.90;999.90;;;;;;;17.69;100.00;92148.25;4920076;29;20277;-62
2022/08/31 04:07:40;;;;;;;1999.90;999.90;;;;;;;17.70;100.00;92154.53;4919862;29;20249;-63
2022/08/31 04:10:06;;;;;;;1999.90;999.90;;;;;;;17.67;100.00;92163.84;4935882;29;20197;-62
2022/08/31 04:12:31;;;;;;;1999.90;999.90;;;;;;;17.71;100.00;92156.75;4919516;29;20245;-62
2022/08/31 04:14:57;;;;;;;1999.90;999.90;;;;;;;17.72;100.00;92174.06;4919435;29;20193;-62
2022/08/31 04:17:22;;;;;;;1999.90;999.90;;;;;;;17.67;100.00;92172.88;4935373;29;20190;-62
2022/08/31 04:19:48;;;;;;;1999.90;999.90;;;;;;;17.70;100.00;92176.59;4919469;29;20193;-63
2022/08/31 04:22:13;;;;;;;1999.90;999.90;;;;;;;17.72;100.00;92185.09;4919527;29;20225;-62
2022/08/31 04:24:38;;;;;;;1999.90;999.90;;;;;;;17.68;100.00;92190.19;4935733;29;20280;-63
2022/08/31 04:27:04;;;;;;;1999.90;999.90;;;;;;;17.71;100.00;92181.59;4919543;29;20189;-63
2022/08/31 04:29:30;;;;;;;1999.90;999.90;;;;;;;17.69;100.00;92180.63;4919629;29;20265;-62
2022/08/31 04:31:56;;;;;;;1999.90;999.90;;;;;;;17.70;100.00;92182.84;4919675;29;20193;-62
2022/08/31 04:34:21;;;;;;;1999.90;999.90;;;;;;;17.71;100.00;92183.63;4919435;29;20253;-63
2022/08/31 04:36:47;;;;;;;1999.90;999.90;;;;;;;17.73;100.00;92175.53;4919256;29;20190;-63
2022/08/31 04:39:12;;;;;;;1999.90;999.90;;;;;;;17.79;100.00;92170.66;4919824;29;20284;-62
2022/08/31 04:41:39;;;;;;;1999.90;999.90;;;;;;;17.77;100.00;92179.47;4919463;29;20253;-62
2022/08/31 04:44:05;;;;;;;1999.90;999.90;;;;;;;17.77;100.00;92176.00;4921312;29;20241;-62
2022/08/31 04:46:32;;;;;;;1999.90;999.90;;;;;;;17.75;100.00;92173.75;4922545;29;20201;-63
2022/08/31 04:48:58;;;;;;;1999.90;999.90;;;;;;;17.76;100.00;92172.47;4922276;29;20210;-63
2022/08/31 04:51:28;;;;;;;1999.90;999.90;;;;;;;17.76;100.00;92174.47;4922638;29;21109;-63
2022/08/31 04:53:54;;;;;;;1999.90;999.90;;;;;;;17.77;100.00;92176.72;4922601;29;20210;-62
2022/08/31 04:56:23;;;;;;;1999.90;999.90;;;;;;;17.76;100.00;92174.47;4938488;29;20250;-63
2022/08/31 04:58:53;;;;;;;1999.90;999.90;;;;;;;17.69;100.00;92167.56;4922240;29;20249;-63
2022/08/31 05:01:21;;;;;;;1999.90;999.90;;;;;;;17.75;100.00;92156.44;4922341;29;20182;-63
2022/08/31 05:03:52;;;;;;;1999.90;999.90;;;;;;;17.81;100.00;92157.09;4922521;29;20245;-64
2022/08/31 05:06:20;;;;;;;1999.90;999.90;;;;;;;17.75;100.00;92150.91;4938398;29;20201;-63
2022/08/31 05:08:46;;;;;;;1999.90;999.90;;;;;;;17.81;100.00;92137.78;4922128;29;20209;-62
2022/08/31 05:11:14;;;;;;;1999.90;999.90;;;;;;;17.86;100.00;92134.16;4922126;29;20202;-62
2022/08/31 05:13:40;;;;;;;1999.90;999.90;;;;;;;17.84;100.00;92131.16;4922043;29;20296;-63
2022/08/31 05:16:09;;;;;;;1999.90;999.90;;;;;;;17.90;100.00;92134.59;4938018;29;20221;-62
2022/08/31 05:18:36;;;;;;;1999.90;999.90;;;;;;;17.99;100.00;92131.44;4922922;29;20192;-62
2022/08/31 05:21:23;;;;;;;1999.90;999.90;;;;;;;18.03;100.00;92137.38;4921886;29;20228;-62
2022/08/31 05:23:49;;;;;;;1999.90;999.90;;;;;;;18.04;100.00;92145.13;4938127;29;20216;-63
2022/08/31 05:26:20;;;;;;;1999.90;999.90;;;;;;;17.97;100.00;92159.56;4922083;29;20205;-62
2022/08/31 05:28:46;;;;;;;1999.90;999.90;;;;;;;17.98;100.00;92152.00;4938190;29;20308;-62
2022/08/31 05:31:12;;;;;;;1999.90;999.90;;;;;;;18.10;100.00;92153.31;4922302;29;20235;-62
2022/08/31 05:33:39;;;;;;;1999.90;999.90;;;;;;;18.15;100.00;92160.75;4922401;29;20217;-62
2022/08/31 05:36:04;;;;;;;1999.90;999.90;;;;;;;18.18;100.00;92160.41;4937609;29;20209;-62
2022/08/31 05:38:30;;;;;;;1999.90;999.90;;;;;;;18.17;100.00;92169.25;4921760;29;20189;-62
2022/08/31 05:40:57;;;;;;;1999.90;999.90;;;;;;;18.09;100.00;92177.41;4937352;29;20194;-62
2022/08/31 05:43:23;;;;;;;1999.90;999.90;;;;;;;18.13;100.00;92168.81;4922077;29;20189;-63
2022/08/31 05:45:48;;;;;;;1999.90;999.90;;;;;;;18.18;100.00;92154.16;4921652;29;20217;-62
2022/08/31 05:48:14;;;;;;;1999.90;999.90;;;;;;;18.22;100.00;92165.63;4937337;29;20245;-62
2022/08/31 05:50:40;;;;;;;1999.90;999.90;;;;;;;18.22;100.00;92165.63;4922004;29;20189;-59
2022/08/31 05:53:06;;;;;;;1999.90;999.90;;;;;;;18.20;100.00;92168.94;4937443;29;20282;-62
2022/08/31 05:55:32;;;;;;;1999.90;999.90;;;;;;;18.21;100.00;92164.88;4921288;29;20229;-62
2022/08/31 05:57:57;;;;;;;1999.90;999.90;;;;;;;18.23;100.00;92162.34;4921985;29;20222;-62
2022/08/31 06:00:24;;;;;;;1999.90;999.90;;;;;;;18.27;100.00;92167.53;4921466;29;20241;-61
2022/08/31 06:02:50;;;;;;;1999.90;999.90;;;;;;;18.30;100.00;92160.97;4921201;29;20194;-62
2022/08/31 06:05:15;;;;;;;1999.90;999.90;;;;;;;18.32;100.00;92155.66;4937521;29;20300;-62
2022/08/31 06:07:41;;;;;;;1999.90;999.90;;;;;;;18.17;100.00;92156.16;4920982;29;20262;-63
2022/08/31 06:10:08;;;;;;;1999.90;999.90;;;;;;;18.29;100.00;92148.44;4921833;29;20206;-72
2022/08/31 06:12:33;;;;;;;1999.90;999.90;;;;;;;18.32;100.00;92159.16;4921095;29;20186;-61
2022/08/31 06:15:01;;;;;;;1999.90;999.90;;;;;;;18.30;100.00;92160.97;4921599;29;20188;-62
2022/08/31 06:17:27;;;;;;;1999.90;999.90;;;;;;;18.26;100.00;92160.53;4937002;29;20197;-63
2022/08/31 06:19:54;;;;;;;1999.90;999.90;;;;;;;18.22;100.00;92162.88;4921698;29;20193;-62
2022/08/31 06:22:20;;;;;;;1999.90;999.90;;;;;;;18.34;100.00;92164.13;4921148;29;20221;-62
2022/08/31 06:24:45;;;;;;;1999.90;999.90;;;;;;;18.45;100.00;92167.47;4921399;29;20190;-62
2022/08/31 06:27:10;;;;;;;1999.90;999.90;;;;;;;18.65;100.00;92164.03;4921077;29;20190;-63
2022/08/31 06:29:36;;;;;;;1999.90;999.90;;;;;;;18.81;100.00;92193.38;4921175;29;20209;-65
2022/08/31 06:32:06;;;;;;;1999.90;999.90;;;;;;;18.75;100.00;92230.69;4920657;29;20192;-63
2022/08/31 06:34:33;;;;;;;1999.90;999.90;;;;;;;18.74;100.00;92243.06;4920795;29;20186;-62
2022/08/31 06:36:59;;;;;;;1999.90;999.90;;;;;;;18.80;100.00;92258.25;4920532;29;20190;-71
2022/08/31 06:39:24;;;;;;;1999.90;999.90;;;;;;;18.90;100.00;92267.59;4936810;29;20190;-61
2022/08/31 06:41:54;;;;;;;1999.90;999.90;;;;;;;18.70;100.00;92306.22;4936860;29;20181;-60
2022/08/31 06:44:21;;;;;;;1999.90;999.90;;;;;;;18.75;100.00;92305.34;4920543;29;20189;-61
2022/08/31 06:46:47;;;;;;;1999.90;999.90;;;;;;;18.72;100.00;92307.16;4920440;29;20225;-62
2022/08/31 06:49:13;;;;;;;1999.90;999.90;;;;;;;18.77;100.00;92297.28;4920862;29;20248;-62
2022/08/31 06:51:39;;;;;;;1999.90;999.90;;;;;;;18.73;100.00;92307.94;4920285;29;20193;-62
2022/08/31 06:54:07;;;;;;;1999.90;999.90;;;;;;;18.68;100.00;92317.03;4920870;29;20193;-62
2022/08/31 06:56:34;;;;;;;1999.90;999.90;;;;;;;18.75;100.00;92300.59;4936247;29;20194;-62
2022/08/31 06:59:01;;;;;;;1999.90;999.90;;;;;;;18.84;100.00;92318.78;4920573;29;20276;-63
2022/08/31 07:01:28;;;;;;;1999.90;999.90;;;;;;;18.88;100.00;92325.50;4920526;29;20201;-60
2022/08/31 07:03:56;;;;;;;1999.90;999.90;;;;;;;18.83;100.00;92344.97;4920151;29;20241;-66
2022/08/31 07:06:24;;;;;;;1999.90;999.90;;;;;;;18.75;100.00;92338.53;4935452;29;20209;-63
2022/08/31 07:08:54;;;;;;;1999.90;999.90;;;;;;;18.66;100.00;92353.53;4919904;29;20300;-62
2022/08/31 07:11:32;;;;;;;1999.90;999.90;;;;;;;18.80;100.00;92351.53;4920235;29;20203;-63
2022/08/31 07:13:59;;;;;;;1999.90;999.90;;;;;;;18.94;100.00;92358.59;4920088;29;20227;-64
2022/08/31 07:16:25;;;;;;;1999.90;999.90;;;;;;;19.04;100.00;92367.94;4936584;29;20192;-65
2022/08/31 07:18:53;;;;;;;1999.90;999.90;;;;;;;18.84;100.00;92404.50;4920547;29;20225;-67
2022/08/31 07:21:23;;;;;;;1999.90;999.90;;;;;;;19.02;100.00;92409.22;4920666;29;20216;-65
2022/08/31 07:23:49;;;;;;;1999.90;999.90;;;;;;;18.96;100.00;92453.59;4935926;29;20197;-65
2022/08/31 07:26:27;;;;;;;1999.90;999.90;;;;;;;19.07;100.00;92441.56;4920306;29;20190;-64
2022/08/31 07:28:54;;;;;;;1999.90;999.90;;;;;;;18.97;100.00;92459.84;4920138;29;20216;-62
2022/08/31 07:31:22;;;;;;;1999.90;999.90;;;;;;;19.06;100.00;92462.94;4920115;29;20189;-68
2022/08/31 07:33:55;;;;;;;1999.90;999.90;;;;;;;19.04;100.00;92476.56;4919979;29;20190;-62
2022/08/31 07:36:23;;;;;;;1999.90;999.90;;;;;;;19.19;100.00;92473.28;4935897;29;20288;-62
2022/08/31 07:44:19;;;;;;;1999.90;999.90;;;;;;;19.27;100.00;92461.09;4937423;29;20202;-60
2022/08/31 07:46:46;;;;;;;1999.90;999.90;;;;;;;19.26;100.00;92450.56;4919791;29;20213;-62
2022/08/31 07:49:14;;;;;;;1999.90;999.90;;;;;;;19.17;100.00;92448.19;4919763;29;20245;-61
2022/08/31 07:51:49;;;;;;;1999.90;999.90;;;;;;;19.57;100.00;92438.66;4920621;29;20189;-61
2022/08/31 07:54:21;;;;;;;1999.90;999.90;;;;;;;19.46;100.00;92453.44;4935662;29;20190;-63
2022/08/31 07:56:50;;;;;;;1999.90;999.90;;;;;;;19.41;100.00;92470.91;4919719;29;20213;-62
2022/08/31 07:59:20;;;;;;;1999.90;999.90;;;;;;;19.70;100.00;92477.41;4919879;29;20245;-61
2022/08/31 08:01:47;;;;;;;1999.90;999.90;;;;;;;19.66;100.00;92507.47;4919869;29;20258;-62
2022/08/31 08:04:17;;;;;;;1999.90;999.90;;;;;;;19.86;100.00;92523.47;4919680;29;20220;-61
2022/08/31 08:06:42;;;;;;;1999.90;999.90;;;;;;;19.92;100.00;92551.78;4935754;29;20186;-62
2022/08/31 08:09:10;;;;;;;1999.90;999.90;;;;;;;19.99;100.00;92569.81;4919341;29;20292;-61
2022/08/31 08:11:40;;;;;;;1999.90;999.90;;;;;;;20.15;100.00;92580.63;4919673;29;20236;-61
2022/08/31 08:14:05;;;;;;;1999.90;999.90;;;;;;;20.34;100.00;92600.66;4919568;29;20198;-61
2022/08/31 08:16:32;;;;;;;1999.90;999.90;;;;;;;20.53;100.00;92615.13;4919588;29;20278;-61
2022/08/31 08:18:57;;;;;;;1999.90;999.90;;;;;;;20.35;100.00;92645.72;4921783;29;20201;-62
2022/08/31 08:21:23;;;;;;;1999.90;999.90;;;;;;;20.35;100.00;92665.13;4938728;29;20186;-61
2022/08/31 08:23:48;;;;;;;1999.90;999.90;;;;;;;20.14;100.00;92712.13;4938604;29;20212;-61
2022/08/31 08:26:14;;;;;;;1999.90;999.90;;;;;;;20.17;100.00;92741.56;4922975;29;20200;-61
2022/08/31 08:28:39;;;;;;;1999.90;999.90;;;;;;;19.99;100.00;92749.94;4922801;29;20237;-60
2022/08/31 08:31:06;;;;;;;1999.90;999.90;;;;;;;20.20;100.00;92734.97;4922928;29;20244;-61
2022/08/31 08:33:33;;;;;;;1999.90;999.90;;;;;;;20.31;100.00;92756.19;4922801;29;20197;-61
2022/08/31 08:36:01;;;;;;;1999.90;999.90;;;;;;;20.35;100.00;92770.50;4938398;29;20192;-60
2022/08/31 08:38:29;;;;;;;1999.90;999.90;;;;;;;20.66;100.00;92784.34;4923232;29;20233;-60
2022/08/31 08:40:56;;;;;;;1999.90;999.90;;;;;;;20.50;100.00;92802.00;4922756;29;20213;-61
2022/08/31 08:43:31;;;;;;;1999.90;999.90;;;;;;;20.35;100.00;92792.69;4938459;29;20273;-60
2022/08/31 08:45:57;;;;;;;1999.90;999.90;;;;;;;20.43;100.00;92797.06;4938833;29;20325;-61
2022/08/31 08:48:26;;;;;;;1999.90;999.90;;;;;;;20.41;100.00;92813.50;4938725;29;20305;-60
2022/08/31 08:50:53;;;;;;;1999.90;999.90;;;;;;;20.22;100.00;92818.38;4922340;29;20249;-61
2022/08/31 08:53:22;;;;;;;1999.90;999.90;;;;;;;20.31;100.00;92823.50;4922803;29;20186;-61
2022/08/31 08:55:49;;;;;;;1999.90;999.90;;;;;;;20.33;100.00;92840.38;4938585;29;20217;-61
2022/08/31 08:58:17;;;;;;;1999.90;999.90;;;;;;;20.11;100.00;92846.25;4938247;29;20190;-60
2022/08/31 09:00:48;;;;;;;1999.90;999.90;;;;;;;19.86;100.00;92836.50;4922711;29;20194;-61
2022/08/31 09:03:29;;;;;;;1999.90;999.90;;;;;;;20.13;100.00;92838.13;4922320;29;20201;-61
2022/08/31 09:06:15;;;;;;;1999.90;999.90;;;;;;;20.14;100.00;92856.25;4938595;29;20186;-61
2022/08/31 09:09:06;;;;;;;1999.90;999.90;;;;;;;20.11;100.00;92843.47;4922617;29;20330;-60
2022/08/31 09:11:59;;;;;;;1999.90;999.90;;;;;;;20.37;100.00;92846.34;4938466;29;20190;-60
2022/08/31 09:15:08;;;;;;;1999.90;999.90;;;;;;;20.49;100.00;92869.84;4938038;29;20178;-61
2022/08/31 09:17:45;;;;;;;1999.90;999.90;;;;;;;20.38;100.00;92864.47;4899398;29;20202;-61
2022/08/31 09:20:12;;;;;;;1999.90;999.90;;;;;;;20.80;100.00;92871.84;4917290;29;20252;-61
2022/08/31 09:22:47;;;;;;;1999.90;999.90;;;;;;;21.55;100.00;92883.38;4922471;29;20254;-61
2022/08/31 09:25:28;;;;;;;1999.90;999.90;;;;;;;21.51;100.00;92933.69;4937995;29;20196;-61
2022/08/31 09:27:57;;;;;;;1999.90;999.90;;;;;;;21.48;100.00;92962.53;4937937;29;20220;-61
2022/08/31 09:30:43;;;;;;;1999.90;999.90;;;;;;;21.40;100.00;92953.34;4921299;29;20185;-61
2022/08/31 09:33:45;;;;;;;1999.90;999.90;;;;;;;21.52;100.00;92996.31;4938137;29;20285;-61
2022/08/31 09:36:17;;;;;;;1999.90;999.90;;;;;;;21.55;100.00;93025.03;4921897;29;20240;-61
2022/08/31 09:38:45;;;;;;;1999.90;999.90;;;;;;;21.38;100.00;93030.88;4922009;29;20204;-61
2022/08/31 09:41:29;;;;;;;1999.90;999.90;;;;;;;21.24;100.00;92990.47;4937474;29;20252;-61
2022/08/31 09:44:35;;;;;;;1999.90;999.90;;;;;;;20.71;100.00;92988.78;4937834;29;20186;-61
2022/08/31 09:47:13;;;;;;;1999.90;999.90;;;;;;;20.86;100.00;92969.63;4921293;29;20211;-61
2022/08/31 09:49:39;;;;;;;1999.90;999.90;;;;;;;21.14;100.00;92958.84;4921846;29;20228;-61
2022/08/31 09:55:20;;;;;;;1999.90;999.90;;;;;;;20.71;100.00;92935.31;4938742;29;20201;-63
2022/08/31 09:57:55;;;;;;;1999.90;999.90;;;;;;;20.67;100.00;92923.78;4921907;29;20240;-62
2022/08/31 10:00:30;;;;;;;1999.90;999.90;;;;;;;20.72;100.00;92934.78;4921509;29;20201;-61
2022/08/31 10:03:02;;;;;;;1999.90;999.90;;;;;;;20.47;100.00;92944.50;4922039;29;20276;-62
2022/08/31 10:05:39;;;;;;;1999.90;999.90;;;;;;;20.48;100.00;92943.22;4937242;29;20192;-63
2022/08/31 10:08:41;;;;;;;1999.90;999.90;;;;;;;20.50;100.00;92940.66;4921447;29;20233;-62
2022/08/31 10:11:14;;;;;;;1999.90;999.90;;;;;;;20.50;100.00;92940.66;4907060;29;20201;-62
2022/08/31 10:13:48;;;;;;;1999.90;999.90;;;;;;;20.46;100.00;92937.44;4921769;29;20197;-61
2022/08/31 10:16:29;;;;;;;1999.90;999.90;;;;;;;20.36;100.00;92938.38;4921804;29;20193;-61
2022/08/31 10:18:55;;;;;;;1999.90;999.90;;;;;;;20.16;100.00;92930.56;4921473;29;20209;-62
2022/08/31 10:21:30;;;;;;;1999.90;999.90;;;;;;;20.03;100.00;92917.38;4937439;29;20197;-62
2022/08/31 10:24:32;;;;;;;1999.90;999.90;;;;;;;19.98;100.00;92873.84;4921352;29;20197;-61
2022/08/31 10:27:03;;;;;;;1999.90;999.90;;;;;;;19.88;100.00;92856.09;4937677;29;20220;-61
2022/08/31 10:30:06;;;;;;;1999.90;999.90;;;;;;;19.83;100.00;92858.94;4936815;29;20220;-62
2022/08/31 10:32:32;;;;;;;1999.90;999.90;;;;;;;20.00;100.00;92846.38;4915876;29;20227;-62
2022/08/31 10:35:30;;;;;;;1999.90;999.90;;;;;;;20.13;100.00;92842.94;4937192;29;20280;-61
2022/08/31 10:38:11;;;;;;;1999.90;999.90;;;;;;;20.04;100.00;92857.16;4921301;29;20182;-62
2022/08/31 10:41:17;;;;;;;1999.90;999.90;;;;;;;20.06;100.00;92855.34;4937216;29;20200;-62
2022/08/31 10:44:02;;;;;;;1999.90;999.90;;;;;;;20.07;100.00;92878.28;4920624;29;20309;-62
2022/08/31 10:46:33;;;;;;;1999.90;999.90;;;;;;;19.96;100.00;92890.25;4920607;29;20674;-61
2022/08/31 10:49:00;;;;;;;1999.90;999.90;;;;;;;19.91;100.00;92854.31;4920796;29;20225;-62
2022/08/31 10:51:55;;;;;;;1999.90;999.90;;;;;;;19.45;100.00;92820.19;4921296;29;20228;-61
2022/08/31 10:54:27;;;;;;;1999.90;999.90;;;;;;;19.34;100.00;92780.81;4921109;29;20190;-62
2022/08/31 10:57:13;;;;;;;1999.90;999.90;;;;;;;19.18;100.00;92767.91;4937105;29;20204;-62
2022/08/31 10:59:50;;;;;;;1999.90;999.90;;;;;;;18.86;100.00;92750.44;4910646;29;20257;-61
2022/08/31 11:02:51;;;;;;;1999.90;999.90;;;;;;;18.80;100.00;92705.53;4936652;29;20194;-61
2022/08/31 11:05:40;;;;;;;1999.90;999.90;;;;;;;18.55;100.00;92629.41;4909584;29;20200;-62
2022/08/31 11:08:26;;;;;;;1999.90;999.90;;;;;;;18.30;100.00;92584.47;4935785;29;20224;-61
2022/08/31 11:10:54;;;;;;;1999.90;999.90;;;;;;;18.22;100.00;92530.31;4936975;29;20205;-62